Time;durP1;ratioP1;P1;durP2;ratioP2;P2;SDS_P1;SDS_P2;PMS_P1;PMS_P2;Temp;Humidity;BMP_temperature;BMP_pressure;BME280_temperature;BME280_humidity;BME280_pressure;Samples;Min_cycle;Max_cycle;Signal;HPM_P1;HPM_P2
2023/12/04 00:00:25;;;;;;;32.65;12.63;;;;;;;-3.70;59.06;101628.94;5005691;28;20041;-66
2023/12/04 00:02:50;;;;;;;31.77;15.27;;;;;;;-3.72;58.57;101625.44;5008715;28;20039;-67
2023/12/04 00:05:16;;;;;;;35.58;14.27;;;;;;;-3.76;58.70;101626.19;5009991;28;20439;-65
2023/12/04 00:07:41;;;;;;;41.28;14.77;;;;;;;-3.87;59.28;101630.97;5005485;28;20041;-66
2023/12/04 00:10:08;;;;;;;33.03;13.07;;;;;;;-3.88;59.00;101624.97;4992449;28;20072;-65
2023/12/04 00:12:33;;;;;;;32.20;15.02;;;;;;;-3.90;59.03;101612.97;5006518;28;20659;-65
2023/12/04 00:14:59;;;;;;;34.60;14.25;;;;;;;-3.77;58.54;101614.22;5007539;28;20064;-66
2023/12/04 00:17:24;;;;;;;30.63;14.02;;;;;;;-3.90;58.83;101608.75;4986986;28;20132;-66
2023/12/04 00:19:50;;;;;;;35.13;14.15;;;;;;;-3.75;58.59;101613.47;5007215;28;20112;-66
2023/12/04 00:22:15;;;;;;;41.25;14.60;;;;;;;-3.73;58.53;101613.50;5010065;28;20052;-65
2023/12/04 00:24:41;;;;;;;39.20;15.32;;;;;;;-3.78;58.77;101605.72;5003767;28;20852;-65
2023/12/04 00:27:06;;;;;;;33.30;13.50;;;;;;;-3.65;58.47;101598.41;5009227;28;20052;-65
2023/12/04 00:29:32;;;;;;;35.78;13.85;;;;;;;-3.59;57.85;101598.59;5004586;28;20029;-66
2023/12/04 00:31:57;;;;;;;33.90;13.55;;;;;;;-3.58;58.32;101593.53;5005361;28;20044;-65
2023/12/04 00:34:23;;;;;;;33.92;12.35;;;;;;;-3.49;57.57;101591.25;5009619;28;20128;-67
2023/12/04 00:36:48;;;;;;;29.48;11.88;;;;;;;-3.64;57.78;101584.81;5004640;28;20076;-66
2023/12/04 00:39:14;;;;;;;33.25;13.00;;;;;;;-3.59;57.80;101583.25;5009661;28;20040;-67
2023/12/04 00:41:39;;;;;;;31.15;13.02;;;;;;;-3.63;57.77;101577.22;5004464;28;20800;-68
2023/12/04 00:44:04;;;;;;;24.98;11.63;;;;;;;-3.64;57.82;101579.72;5009041;28;20114;-69
2023/12/04 00:46:30;;;;;;;27.80;12.35;;;;;;;-3.85;58.34;101574.81;5005724;28;20034;-69
2023/12/04 00:48:56;;;;;;;24.73;11.18;;;;;;;-3.58;58.06;101569.69;5007615;28;20052;-68
2023/12/04 00:51:21;;;;;;;26.40;12.52;;;;;;;-3.58;57.21;101569.69;5009473;28;20030;-68
2023/12/04 00:53:47;;;;;;;24.05;10.93;;;;;;;-3.67;57.78;101567.72;5002556;28;20639;-70
2023/12/04 00:56:12;;;;;;;31.88;13.57;;;;;;;-3.63;57.64;101561.00;5011414;28;20025;-72
2023/12/04 00:58:38;;;;;;;28.45;10.00;;;;;;;-3.61;57.30;101560.22;5004243;28;20450;-66
2023/12/04 01:01:03;;;;;;;30.40;12.38;;;;;;;-3.65;57.29;101555.84;5008710;28;20654;-68
2023/12/04 01:03:32;;;;;;;28.45;10.73;;;;;;;-3.57;57.44;101554.38;4993184;28;20567;-68
2023/12/04 01:05:58;;;;;;;26.85;11.65;;;;;;;-3.57;57.17;101551.81;5007815;28;20045;-68
2023/12/04 01:08:24;;;;;;;19.42;9.95;;;;;;;-3.67;57.22;101544.72;5007201;28;20037;-67
2023/12/04 01:10:49;;;;;;;23.35;11.93;;;;;;;-3.66;56.99;101541.34;5004920;28;20668;-69
2023/12/04 01:13:15;;;;;;;30.35;10.90;;;;;;;-3.65;57.18;101537.09;5006720;28;20045;-69
2023/12/04 01:15:40;;;;;;;23.70;11.20;;;;;;;-3.57;57.13;101535.63;5005129;28;20025;-69
2023/12/04 01:18:06;;;;;;;23.02;10.95;;;;;;;-3.55;56.80;101529.72;5004234;28;20041;-69
2023/12/04 01:20:33;;;;;;;25.17;11.70;;;;;;;-3.75;57.24;101528.28;5005872;28;20034;-68
2023/12/04 01:22:58;;;;;;;25.20;10.30;;;;;;;-3.94;57.78;101535.41;5004624;28;20041;-69
2023/12/04 01:25:24;;;;;;;37.05;11.63;;;;;;;-3.94;57.48;101534.56;5009334;28;20532;-68
2023/12/04 01:27:49;;;;;;;25.92;10.27;;;;;;;-3.79;57.31;101527.31;4985511;28;20476;-66
2023/12/04 01:30:15;;;;;;;24.95;11.07;;;;;;;-3.74;57.56;101527.44;5009713;28;20030;-65
2023/12/04 01:32:40;;;;;;;25.90;10.27;;;;;;;-3.60;56.86;101535.56;5004004;28;20036;-66
2023/12/04 01:35:06;;;;;;;25.33;10.23;;;;;;;-3.64;57.13;101534.59;5005420;28;20537;-66
2023/12/04 01:37:32;;;;;;;24.27;9.75;;;;;;;-3.77;57.54;101532.47;5004063;28;20051;-66
2023/12/04 01:39:57;;;;;;;25.77;10.43;;;;;;;-3.96;57.81;101531.09;4988929;28;20030;-66
2023/12/04 01:42:23;;;;;;;27.77;10.40;;;;;;;-3.78;57.41;101523.09;5008493;28;20052;-66
2023/12/04 01:44:48;;;;;;;23.08;9.85;;;;;;;-3.98;57.97;101528.47;5002773;28;21342;-66
2023/12/04 01:47:14;;;;;;;22.05;8.55;;;;;;;-3.68;57.16;101530.19;5008578;28;20072;-65
2023/12/04 01:49:40;;;;;;;17.92;9.20;;;;;;;-3.69;57.33;101523.38;5003760;28;20037;-66
2023/12/04 01:52:06;;;;;;;18.80;9.52;;;;;;;-4.04;58.25;101515.50;5007954;28;20068;-67
2023/12/04 01:54:32;;;;;;;24.05;9.60;;;;;;;-3.84;57.92;101510.13;4994409;28;20087;-66
2023/12/04 01:56:58;;;;;;;30.92;11.05;;;;;;;-3.89;58.14;101504.91;5006993;28;20119;-66
2023/12/04 01:59:25;;;;;;;20.33;8.63;;;;;;;-4.06;58.39;101500.97;5010533;28;20523;-65
2023/12/04 02:01:52;;;;;;;25.05;10.25;;;;;;;-3.92;58.32;101500.56;5003076;28;20076;-65
2023/12/04 02:04:17;;;;;;;24.20;10.70;;;;;;;-4.00;58.30;101498.59;5007952;28;20644;-65
2023/12/04 02:06:43;;;;;;;21.17;9.52;;;;;;;-4.11;58.66;101496.56;4999836;28;20071;-66
2023/12/04 02:09:12;;;;;;;25.42;9.40;;;;;;;-4.02;58.25;101496.00;5005893;28;20590;-66
2023/12/04 02:11:38;;;;;;;21.40;7.75;;;;;;;-3.85;58.15;101499.06;5005114;28;20029;-66
2023/12/04 02:14:05;;;;;;;25.73;10.52;;;;;;;-3.96;58.27;101501.28;5006049;28;20041;-66
2023/12/04 02:16:32;;;;;;;28.75;9.95;;;;;;;-3.80;57.65;101494.94;5007320;28;20044;-66
2023/12/04 02:18:58;;;;;;;22.13;10.30;;;;;;;-3.80;57.91;101497.50;5003326;28;20026;-65
2023/12/04 02:21:23;;;;;;;22.00;9.25;;;;;;;-3.86;58.19;101487.09;5009071;28;20064;-66
2023/12/04 02:23:50;;;;;;;27.02;10.63;;;;;;;-3.81;57.63;101489.78;5001268;28;20132;-66
2023/12/04 02:26:22;;;;;;;21.33;9.80;;;;;;;-3.86;58.21;101491.34;5024822;28;20127;-66
2023/12/04 02:28:53;;;;;;;20.33;8.70;;;;;;;-3.81;57.79;101487.22;5003220;28;20740;-65
2023/12/04 02:31:22;;;;;;;25.73;9.70;;;;;;;-3.89;58.10;101477.66;5007252;28;20029;-64
2023/12/04 02:33:52;;;;;;;21.08;10.13;;;;;;;-3.93;58.50;101475.84;5001516;28;20609;-65
2023/12/04 02:36:19;;;;;;;21.60;9.25;;;;;;;-4.08;58.44;101477.94;4981045;28;20055;-65
2023/12/04 02:38:45;;;;;;;27.67;10.10;;;;;;;-4.10;59.02;101472.78;5017381;28;20049;-66
2023/12/04 02:41:11;;;;;;;22.70;9.43;;;;;;;-4.02;58.44;101465.34;5011432;28;20032;-65
2023/12/04 02:43:37;;;;;;;22.73;9.00;;;;;;;-4.09;58.88;101458.34;5002049;28;20450;-64
2023/12/04 02:46:03;;;;;;;25.90;9.60;;;;;;;-3.98;58.72;101461.22;5007715;28;20172;-68
2023/12/04 02:48:28;;;;;;;21.27;9.77;;;;;;;-3.90;58.57;101457.19;5007825;28;20112;-68
2023/12/04 02:50:53;;;;;;;23.33;10.07;;;;;;;-4.13;58.96;101456.50;5005481;28;20033;-68
2023/12/04 02:53:19;;;;;;;21.73;10.32;;;;;;;-4.43;59.69;101457.31;5007327;28;20025;-67
2023/12/04 02:55:44;;;;;;;24.33;10.45;;;;;;;-4.26;59.84;101454.41;5004497;28;20034;-67
2023/12/04 02:58:10;;;;;;;23.10;10.38;;;;;;;-4.04;59.11;101446.56;5007131;28;20091;-68
2023/12/04 03:00:35;;;;;;;26.73;9.57;;;;;;;-3.91;58.92;101438.44;5004874;28;20112;-67
2023/12/04 03:03:01;;;;;;;25.17;10.20;;;;;;;-4.12;59.14;101433.59;5003949;28;20076;-66
2023/12/04 03:05:26;;;;;;;19.00;9.95;;;;;;;-4.38;60.04;101437.91;5009415;28;20034;-68
2023/12/04 03:07:51;;;;;;;28.05;10.90;;;;;;;-4.21;59.72;101433.31;5003491;28;20559;-67
2023/12/04 03:10:17;;;;;;;31.13;12.80;;;;;;;-4.32;60.09;101427.88;5008173;28;20408;-65
2023/12/04 03:12:42;;;;;;;24.20;10.13;;;;;;;-4.25;59.72;101426.38;5003832;28;20114;-64
2023/12/04 03:15:10;;;;;;;25.15;10.63;;;;;;;-4.16;59.98;101425.78;5010658;28;20037;-65
2023/12/04 03:17:35;;;;;;;29.15;9.98;;;;;;;-4.07;59.31;101418.41;5008496;28;20079;-70
2023/12/04 03:20:01;;;;;;;23.65;10.20;;;;;;;-4.04;59.55;101417.63;5009591;28;20088;-69
2023/12/04 03:22:26;;;;;;;25.25;10.52;;;;;;;-4.35;59.77;101407.34;5012958;28;20111;-69
2023/12/04 03:24:52;;;;;;;28.73;11.98;;;;;;;-4.26;60.07;101413.56;5007539;28;20033;-69
2023/12/04 03:27:17;;;;;;;23.75;11.43;;;;;;;-4.11;59.65;101409.78;5011315;28;21067;-69
2023/12/04 03:29:43;;;;;;;24.73;11.30;;;;;;;-4.16;59.69;101397.72;5005028;28;20041;-65
2023/12/04 03:32:08;;;;;;;26.98;10.88;;;;;;;-4.29;60.51;101399.03;5010748;28;20039;-66
2023/12/04 03:34:34;;;;;;;26.02;11.50;;;;;;;-4.30;60.29;101395.63;5023789;28;20140;-65
2023/12/04 03:37:00;;;;;;;30.50;11.80;;;;;;;-3.87;59.32;101398.53;5006629;28;20099;-66
2023/12/04 03:39:25;;;;;;;29.83;11.38;;;;;;;-3.98;59.57;101393.13;5009813;28;20053;-65
2023/12/04 03:41:50;;;;;;;24.13;10.32;;;;;;;-4.03;60.06;101392.13;5008212;28;20566;-66
2023/12/04 03:44:16;;;;;;;30.90;11.45;;;;;;;-3.78;59.24;101387.72;5007877;28;20587;-66
2023/12/04 03:46:41;;;;;;;34.03;10.32;;;;;;;-3.94;59.82;101377.06;5004821;28;20717;-66
2023/12/04 03:49:07;;;;;;;32.22;12.43;;;;;;;-4.01;59.96;101376.84;5009812;28;20646;-66
2023/12/04 03:51:32;;;;;;;32.95;12.27;;;;;;;-4.03;60.02;101364.06;5008011;28;20033;-66
2023/12/04 03:53:58;;;;;;;28.73;11.25;;;;;;;-4.13;60.77;101377.38;5021683;28;20087;-66
2023/12/04 03:56:23;;;;;;;30.15;11.18;;;;;;;-4.22;60.52;101374.56;5008379;28;20083;-66
2023/12/04 03:58:49;;;;;;;24.85;10.95;;;;;;;-4.13;60.37;101369.72;5005951;28;20061;-66
2023/12/04 04:01:14;;;;;;;31.35;11.57;;;;;;;-3.93;59.98;101368.56;5009512;28;20057;-65
2023/12/04 04:03:40;;;;;;;25.40;10.85;;;;;;;-4.19;60.79;101364.41;5006099;28;20053;-65
2023/12/04 04:06:06;;;;;;;29.60;11.18;;;;;;;-4.00;60.23;101358.16;5007286;28;20045;-67
2023/12/04 04:08:32;;;;;;;29.90;10.95;;;;;;;-4.13;60.90;101364.59;5009518;28;20049;-66
2023/12/04 04:10:57;;;;;;;26.75;10.85;;;;;;;-3.92;60.11;101357.56;5007629;28;20049;-66
2023/12/04 04:13:22;;;;;;;25.83;11.75;;;;;;;-4.03;60.26;101361.50;5006749;28;20041;-65
2023/12/04 04:15:48;;;;;;;28.35;10.77;;;;;;;-3.76;59.64;101357.97;5005437;28;20072;-66
2023/12/04 04:18:13;;;;;;;29.83;11.30;;;;;;;-3.89;60.08;101355.06;5008457;28;20119;-65
2023/12/04 04:20:39;;;;;;;28.40;11.70;;;;;;;-4.01;60.65;101359.84;5007268;28;20508;-65
2023/12/04 04:23:04;;;;;;;23.85;10.98;;;;;;;-3.91;60.04;101354.16;5001992;28;20104;-66
2023/12/04 04:25:30;;;;;;;28.95;11.77;;;;;;;-3.81;60.13;101356.97;5008089;28;20041;-66
2023/12/04 04:27:55;;;;;;;29.42;12.00;;;;;;;-3.88;60.35;101341.47;5004156;28;20045;-66
2023/12/04 04:30:21;;;;;;;31.40;11.38;;;;;;;-3.89;60.22;101346.56;5007395;28;20062;-66
2023/12/04 04:32:46;;;;;;;30.40;12.80;;;;;;;-4.04;60.40;101339.31;5006256;28;20064;-65
2023/12/04 04:35:12;;;;;;;22.02;10.80;;;;;;;-3.81;60.69;101336.53;5007980;28;20079;-65
2023/12/04 04:37:37;;;;;;;23.65;9.85;;;;;;;-3.99;60.69;101335.19;5009916;28;20021;-66
2023/12/04 04:40:03;;;;;;;24.52;10.82;;;;;;;-3.85;60.59;101329.59;5006117;28;20063;-65
2023/12/04 04:42:29;;;;;;;28.45;10.38;;;;;;;-3.83;60.29;101328.84;5009283;28;20065;-65
2023/12/04 04:44:54;;;;;;;31.60;11.23;;;;;;;-3.85;60.57;101327.03;5003527;28;20033;-64
2023/12/04 04:47:20;;;;;;;25.10;10.85;;;;;;;-3.90;60.87;101320.16;5008871;28;20562;-65
2023/12/04 04:49:45;;;;;;;29.98;11.38;;;;;;;-3.91;60.82;101318.41;5004578;28;20061;-64
2023/12/04 04:52:11;;;;;;;23.77;9.63;;;;;;;-3.78;60.24;101314.50;5008737;28;20033;-64
2023/12/04 04:54:36;;;;;;;27.77;10.75;;;;;;;-3.95;60.83;101315.72;5008700;28;20114;-67
2023/12/04 04:57:02;;;;;;;27.88;10.77;;;;;;;-3.83;60.64;101312.63;5008502;28;20044;-67
2023/12/04 04:59:30;;;;;;;25.38;10.88;;;;;;;-3.94;60.66;101309.81;5008334;28;20042;-69
2023/12/04 05:01:56;;;;;;;28.25;10.25;;;;;;;-3.63;60.24;101308.94;5022966;28;20029;-69
2023/12/04 05:04:22;;;;;;;29.27;10.93;;;;;;;-3.69;60.30;101311.31;5015061;28;20508;-70
2023/12/04 05:06:47;;;;;;;24.83;10.65;;;;;;;-3.60;59.95;101300.47;5005898;28;20041;-71
2023/12/04 05:09:13;;;;;;;24.95;10.30;;;;;;;-4.06;60.93;101301.81;5008312;28;20037;-69
2023/12/04 05:11:38;;;;;;;27.75;10.60;;;;;;;-3.74;60.79;101300.09;5009916;28;20507;-69
2023/12/04 05:14:03;;;;;;;29.30;11.27;;;;;;;-3.79;60.62;101299.97;5004685;28;20038;-68
2023/12/04 05:16:29;;;;;;;22.65;9.93;;;;;;;-3.71;60.53;101302.75;5007291;28;21657;-69
2023/12/04 05:18:54;;;;;;;26.50;10.02;;;;;;;-3.80;60.51;101298.25;5005525;28;20128;-69
2023/12/04 05:21:20;;;;;;;28.75;10.35;;;;;;;-3.86;60.65;101289.56;5006532;28;20044;-69
2023/12/04 05:23:45;;;;;;;26.42;10.63;;;;;;;-3.62;60.11;101290.19;4988530;28;20029;-70
2023/12/04 05:26:11;;;;;;;25.67;10.48;;;;;;;-3.58;59.84;101293.72;5008786;28;20713;-70
2023/12/04 05:28:36;;;;;;;22.52;9.93;;;;;;;-3.53;59.88;101287.88;5000444;28;20044;-69
2023/12/04 05:31:02;;;;;;;31.73;11.88;;;;;;;-3.73;60.43;101294.19;5021022;28;20041;-72
2023/12/04 05:33:28;;;;;;;26.50;10.57;;;;;;;-3.63;60.26;101296.16;5005537;28;20033;-72
2023/12/04 05:35:53;;;;;;;24.50;11.65;;;;;;;-3.72;60.52;101295.88;5006311;28;20197;-71
2023/12/04 05:38:19;;;;;;;25.35;11.07;;;;;;;-3.67;60.42;101284.97;5005072;28;20041;-71
2023/12/04 05:40:44;;;;;;;25.17;10.23;;;;;;;-3.60;60.28;101286.00;5022129;28;20570;-72
2023/12/04 05:43:10;;;;;;;20.98;8.50;;;;;;;-3.80;60.75;101282.06;5021806;28;20045;-72
2023/12/04 05:45:36;;;;;;;26.77;11.63;;;;;;;-3.67;60.74;101281.56;5006347;28;20136;-71
2023/12/04 05:48:01;;;;;;;30.65;10.50;;;;;;;-3.43;60.00;101272.75;5005104;28;20587;-71
2023/12/04 05:50:27;;;;;;;21.20;11.20;;;;;;;-3.43;59.79;101272.75;5004352;28;20704;-71
2023/12/04 05:52:52;;;;;;;24.42;9.38;;;;;;;-3.87;61.00;101273.41;5002198;28;20597;-66
2023/12/04 05:55:18;;;;;;;27.38;11.55;;;;;;;-3.66;60.79;101270.50;5004820;28;20165;-67
2023/12/04 05:57:44;;;;;;;31.95;12.43;;;;;;;-3.69;60.82;101265.34;5005094;28;20151;-67
2023/12/04 06:00:13;;;;;;;27.10;10.77;;;;;;;-3.66;60.62;101262.84;5007204;28;20033;-66
2023/12/04 06:02:39;;;;;;;24.75;10.55;;;;;;;-3.60;60.80;101265.56;5005270;28;20526;-67
2023/12/04 06:05:06;;;;;;;27.85;10.90;;;;;;;-3.57;60.59;101260.50;5002828;28;20706;-67
2023/12/04 06:07:31;;;;;;;24.77;9.73;;;;;;;-3.65;60.63;101263.69;5006435;28;20048;-66
2023/12/04 06:09:57;;;;;;;28.00;10.85;;;;;;;-3.47;60.20;101262.47;5003484;28;20042;-67
2023/12/04 06:12:23;;;;;;;24.55;10.00;;;;;;;-3.70;60.75;101258.47;5002647;28;20540;-70
2023/12/04 06:14:48;;;;;;;24.00;10.02;;;;;;;-3.61;60.57;101252.72;4997593;28;20043;-70
2023/12/04 06:17:14;;;;;;;23.80;11.38;;;;;;;-3.58;60.44;101257.94;5003252;28;20086;-68
2023/12/04 06:19:39;;;;;;;21.20;9.93;;;;;;;-3.66;61.35;101255.19;5010637;28;20065;-68
2023/12/04 06:22:05;;;;;;;22.77;10.25;;;;;;;-3.47;60.60;101257.38;5000574;28;20156;-68
2023/12/04 06:24:31;;;;;;;26.52;11.52;;;;;;;-3.80;61.46;101253.97;4981564;28;20134;-67
2023/12/04 06:26:57;;;;;;;25.40;10.52;;;;;;;-3.75;61.52;101249.84;4984086;28;20034;-69
2023/12/04 06:29:24;;;;;;;24.30;10.80;;;;;;;-3.77;61.34;101242.13;5002531;28;20132;-67
2023/12/04 06:31:50;;;;;;;30.92;9.93;;;;;;;-3.55;61.19;101246.09;5003187;28;20026;-68
2023/12/04 06:34:16;;;;;;;22.33;10.30;;;;;;;-3.50;60.73;101241.94;5003428;28;20062;-68
2023/12/04 06:36:42;;;;;;;23.73;11.43;;;;;;;-3.43;60.44;101236.97;5003926;28;20415;-68
2023/12/04 06:39:12;;;;;;;25.33;10.07;;;;;;;-3.36;60.53;101229.50;4998018;28;20041;-68
2023/12/04 06:41:39;;;;;;;26.88;12.73;;;;;;;-3.23;60.37;101232.34;5004886;28;20899;-69
2023/12/04 06:44:05;;;;;;;24.45;10.48;;;;;;;-3.39;60.43;101218.34;4992875;28;20038;-70
2023/12/04 06:46:36;;;;;;;23.23;11.10;;;;;;;-3.44;60.74;101225.03;5005835;28;20538;-72
2023/12/04 06:49:05;;;;;;;23.05;9.50;;;;;;;-3.40;60.19;101224.28;5006014;28;20519;-72
2023/12/04 06:51:30;;;;;;;29.10;11.55;;;;;;;-3.30;60.28;101229.63;5011823;28;20484;-71
2023/12/04 06:53:56;;;;;;;27.10;11.52;;;;;;;-3.22;60.04;101232.38;5006024;28;20044;-69
2023/12/04 06:56:21;;;;;;;25.48;10.50;;;;;;;-3.40;60.44;101222.59;5010734;28;20484;-70
2023/12/04 06:58:47;;;;;;;27.58;9.38;;;;;;;-3.13;59.79;101222.34;5008492;28;20039;-71
2023/12/04 07:01:12;;;;;;;28.63;11.52;;;;;;;-3.38;60.64;101220.09;5007204;28;20067;-71
2023/12/04 07:03:38;;;;;;;27.40;10.55;;;;;;;-3.21;60.11;101223.84;5008316;28;20195;-67
2023/12/04 07:06:04;;;;;;;28.30;12.68;;;;;;;-3.23;59.99;101225.50;5008489;28;20022;-69
2023/12/04 07:08:29;;;;;;;21.60;10.63;;;;;;;-3.36;60.18;101221.84;5008103;28;20413;-66
2023/12/04 07:10:55;;;;;;;30.50;10.73;;;;;;;-3.25;60.10;101222.06;5009176;28;20124;-68
2023/12/04 07:13:21;;;;;;;18.92;9.35;;;;;;;-3.16;60.12;101229.97;5026533;28;20091;-68
2023/12/04 07:15:46;;;;;;;22.90;9.48;;;;;;;-3.10;60.16;101222.41;5007441;28;20049;-67
2023/12/04 07:18:12;;;;;;;24.80;11.00;;;;;;;-3.30;60.32;101218.53;5007153;28;20658;-65
2023/12/04 07:20:37;;;;;;;24.95;10.80;;;;;;;-3.36;60.47;101229.50;5008759;28;20044;-69
2023/12/04 07:23:03;;;;;;;25.10;9.90;;;;;;;-3.20;60.42;101214.53;5006058;28;20565;-68
2023/12/04 07:25:29;;;;;;;30.73;10.63;;;;;;;-3.15;60.14;101224.00;5005373;28;20029;-69
2023/12/04 07:27:58;;;;;;;26.63;9.95;;;;;;;-3.37;60.59;101232.03;5004365;28;20034;-68
2023/12/04 07:30:24;;;;;;;22.63;9.88;;;;;;;-3.20;60.58;101225.59;5010929;28;20103;-68
2023/12/04 07:32:50;;;;;;;22.00;10.10;;;;;;;-3.18;59.78;101223.94;5007306;28;20120;-71
2023/12/04 07:35:18;;;;;;;30.02;11.48;;;;;;;-3.03;59.83;101225.97;4993324;28;20108;-70
2023/12/04 07:37:45;;;;;;;27.73;11.25;;;;;;;-3.15;60.03;101226.56;5006258;28;20116;-70
2023/12/04 07:40:11;;;;;;;21.85;10.65;;;;;;;-3.10;60.08;101235.19;5007851;28;20649;-65
2023/12/04 07:42:38;;;;;;;24.75;9.75;;;;;;;-3.00;59.82;101226.03;5006396;28;20087;-67
2023/12/04 07:45:15;;;;;;;27.80;11.20;;;;;;;-2.96;59.71;101225.28;5011175;28;20037;-69
2023/12/04 07:47:43;;;;;;;27.92;11.45;;;;;;;-2.84;59.44;101219.56;4994232;28;20152;-68
2023/12/04 07:50:14;;;;;;;26.75;12.38;;;;;;;-2.98;59.88;101220.94;5005489;28;20532;-68
2023/12/04 07:52:42;;;;;;;29.55;11.02;;;;;;;-2.95;59.52;101226.13;5005256;28;20029;-69
2023/12/04 07:55:14;;;;;;;28.98;11.27;;;;;;;-3.12;60.10;101224.06;4976662;28;20025;-68
2023/12/04 07:57:39;;;;;;;24.73;10.32;;;;;;;-2.99;59.73;101221.78;5007936;28;20109;-69
2023/12/04 08:00:06;;;;;;;23.45;9.40;;;;;;;-2.94;59.56;101215.06;5005037;28;20049;-68
2023/12/04 08:02:31;;;;;;;20.20;8.52;;;;;;;-3.02;60.16;101204.69;5008734;28;20046;-68
2023/12/04 08:04:57;;;;;;;27.65;10.73;;;;;;;-3.02;59.88;101203.84;5002441;28;20079;-68
2023/12/04 08:07:22;;;;;;;22.40;9.32;;;;;;;-2.90;59.42;101206.63;5008140;28;20095;-67
2023/12/04 08:09:50;;;;;;;22.30;9.57;;;;;;;-3.08;59.87;101207.09;4996730;28;20045;-72
2023/12/04 08:12:19;;;;;;;21.10;9.38;;;;;;;-3.36;60.90;101203.06;5001524;28;20029;-65
2023/12/04 08:14:47;;;;;;;22.88;9.10;;;;;;;-3.01;59.66;101200.44;5005835;28;20064;-69
2023/12/04 08:17:15;;;;;;;23.55;10.40;;;;;;;-3.13;60.13;101196.78;5005822;28;20052;-69
2023/12/04 08:19:47;;;;;;;16.95;8.75;;;;;;;-2.99;59.70;101188.53;4998731;28;20040;-70
2023/12/04 08:22:15;;;;;;;30.52;10.68;;;;;;;-3.01;59.73;101185.09;4993689;28;20030;-70
2023/12/04 08:24:44;;;;;;;20.53;8.80;;;;;;;-2.72;59.09;101178.84;5007155;28;20042;-71
2023/12/04 08:27:10;;;;;;;23.10;10.18;;;;;;;-3.02;59.44;101171.44;5002606;28;20646;-69
2023/12/04 08:29:36;;;;;;;21.13;9.15;;;;;;;-3.02;59.48;101173.16;5007421;28;20045;-69
2023/12/04 08:32:13;;;;;;;25.33;10.43;;;;;;;-2.79;59.08;101166.78;5004504;28;20096;-70
2023/12/04 08:34:41;;;;;;;19.88;9.55;;;;;;;-2.94;59.36;101157.09;5006645;28;20083;-69
2023/12/04 08:37:06;;;;;;;19.83;8.63;;;;;;;-2.73;58.95;101161.78;5002110;28;20037;-68
2023/12/04 08:39:37;;;;;;;20.25;8.85;;;;;;;-2.70;58.76;101149.03;5003656;28;20051;-67
2023/12/04 08:42:04;;;;;;;24.57;11.27;;;;;;;-2.65;58.75;101152.56;5002513;28;20030;-67
2023/12/04 08:44:29;;;;;;;18.58;8.27;;;;;;;-2.59;58.59;101153.53;5008076;28;20108;-68
2023/12/04 08:46:57;;;;;;;20.50;10.48;;;;;;;-2.81;59.14;101158.22;5003688;28;20055;-66
2023/12/04 08:49:23;;;;;;;18.58;8.85;;;;;;;-2.77;58.70;101159.16;5006268;28;20064;-67
2023/12/04 08:51:53;;;;;;;19.70;9.20;;;;;;;-2.65;58.17;101165.38;5006641;28;20055;-68
2023/12/04 08:54:26;;;;;;;21.17;9.05;;;;;;;-2.82;58.61;101161.63;5001752;28;20159;-66
2023/12/04 08:56:56;;;;;;;18.70;9.23;;;;;;;-2.86;58.41;101160.69;5006022;28;20025;-67
2023/12/04 08:59:22;;;;;;;22.50;9.63;;;;;;;-2.84;58.64;101164.13;5014559;28;20380;-68
2023/12/04 09:01:50;;;;;;;18.83;9.38;;;;;;;-2.82;58.89;101169.28;5009185;28;20029;-67
2023/12/04 09:04:27;;;;;;;19.50;8.30;;;;;;;-2.63;58.33;101160.25;4969602;28;20590;-66
2023/12/04 09:07:00;;;;;;;26.25;8.93;;;;;;;-2.70;58.63;101161.84;5004411;28;20054;-65
2023/12/04 09:09:28;;;;;;;23.75;8.63;;;;;;;-2.47;57.59;101163.97;5007749;28;20117;-65
2023/12/04 09:12:02;;;;;;;18.63;8.43;;;;;;;-2.71;57.96;101164.38;4999239;28;20037;-67
2023/12/04 09:14:32;;;;;;;18.95;8.45;;;;;;;-2.53;57.72;101158.75;5002955;28;20127;-65
2023/12/04 09:17:00;;;;;;;21.17;10.07;;;;;;;-2.40;57.52;101159.81;5007631;28;20114;-65
2023/12/04 09:19:25;;;;;;;20.80;8.38;;;;;;;-2.19;56.88;101159.38;5003293;28;20063;-66
2023/12/04 09:21:58;;;;;;;17.27;6.72;;;;;;;-2.32;57.02;101156.56;5006059;28;20125;-66
2023/12/04 09:24:23;;;;;;;15.88;8.77;;;;;;;-2.11;56.30;101153.53;4977991;28;20538;-66
2023/12/04 09:26:49;;;;;;;18.45;7.78;;;;;;;-2.22;56.46;101157.63;5004298;28;20029;-66
2023/12/04 09:29:17;;;;;;;21.10;8.68;;;;;;;-2.26;56.36;101154.13;5000357;28;20041;-66
2023/12/04 09:31:43;;;;;;;16.58;7.55;;;;;;;-2.30;56.57;101152.34;5001103;28;20045;-67
2023/12/04 09:34:20;;;;;;;19.73;8.10;;;;;;;-2.36;56.67;101151.38;4994278;28;20084;-67
2023/12/04 09:36:48;;;;;;;17.05;7.43;;;;;;;-2.28;56.39;101149.81;5004063;28;20053;-67
2023/12/04 09:39:14;;;;;;;19.50;7.85;;;;;;;-2.37;56.31;101144.53;5000773;28;20064;-67
2023/12/04 09:41:44;;;;;;;18.05;8.75;;;;;;;-2.34;56.34;101145.44;5006390;28;20053;-67
2023/12/04 09:44:17;;;;;;;16.67;6.93;;;;;;;-2.15;55.41;101140.66;4999059;28;20045;-67
2023/12/04 09:46:47;;;;;;;14.82;7.47;;;;;;;-2.30;55.85;101144.66;5005245;28;20033;-68
2023/12/04 09:49:13;;;;;;;21.27;9.45;;;;;;;-2.40;55.77;101152.16;4988208;28;20543;-68
2023/12/04 09:51:39;;;;;;;19.27;8.18;;;;;;;-2.34;56.18;101145.44;5010755;28;20531;-67
2023/12/04 09:54:06;;;;;;;18.55;8.95;;;;;;;-2.23;55.61;101141.38;4970284;28;20049;-68
2023/12/04 09:56:34;;;;;;;17.30;7.55;;;;;;;-2.33;55.81;101141.22;5002461;28;20040;-67
2023/12/04 09:59:02;;;;;;;21.27;9.82;;;;;;;-2.25;55.64;101134.50;4979587;28;20638;-67
2023/12/04 10:01:40;;;;;;;19.35;7.93;;;;;;;-2.17;55.33;101137.22;4989093;28;20488;-67
2023/12/04 10:04:10;;;;;;;15.90;7.75;;;;;;;-2.30;55.84;101131.00;5005588;28;20044;-67
2023/12/04 10:06:39;;;;;;;18.17;8.60;;;;;;;-2.33;55.73;101131.81;5010506;28;20512;-68
2023/12/04 10:09:11;;;;;;;20.33;7.25;;;;;;;-2.29;55.86;101125.91;5019034;28;20056;-67
2023/12/04 10:11:39;;;;;;;;;;;;;;;-2.49;55.71;101124.69;5008465;28;20037;-66
2023/12/04 10:14:20;;;;;;;13.07;6.47;;;;;;;-2.45;55.84;101131.59;5003955;28;20297;-67
2023/12/04 10:16:45;;;;;;;14.20;7.28;;;;;;;-2.47;55.99;101135.81;5001475;28;20722;-66
2023/12/04 10:19:17;;;;;;;16.42;6.40;;;;;;;-2.38;55.54;101123.22;4992142;28;20041;-66
2023/12/04 10:21:44;;;;;;;15.80;7.60;;;;;;;-2.48;55.50;101121.31;5001616;28;20041;-67
2023/12/04 10:24:10;;;;;;;16.25;8.38;;;;;;;-2.48;55.69;101106.81;5003952;28;20469;-67
2023/12/04 10:26:54;;;;;;;14.48;7.18;;;;;;;-2.40;55.82;101109.50;5011384;28;20638;-65
2023/12/04 10:29:19;;;;;;;20.92;9.00;;;;;;;-2.19;55.36;101110.72;5001969;28;20136;-65
2023/12/04 10:31:45;;;;;;;15.73;6.65;;;;;;;-2.15;54.97;101100.53;5006765;28;20037;-64
2023/12/04 10:34:13;;;;;;;18.67;8.02;;;;;;;-2.40;55.30;101104.41;4990200;28;20144;-65
2023/12/04 10:36:41;;;;;;;13.85;6.75;;;;;;;-2.29;55.40;101092.63;5005264;28;20044;-67
2023/12/04 10:39:09;;;;;;;17.10;6.22;;;;;;;-2.17;54.97;101091.09;5004322;28;20143;-65
2023/12/04 10:41:37;;;;;;;15.93;6.75;;;;;;;-2.08;54.61;101084.41;5013162;28;20038;-67
2023/12/04 10:44:08;;;;;;;14.75;6.78;;;;;;;-2.05;54.19;101079.34;5008318;28;20125;-66
2023/12/04 10:46:41;;;;;;;19.73;8.27;;;;;;;-1.83;53.71;101077.97;5010567;28;20514;-65
2023/12/04 10:49:09;;;;;;;15.05;7.07;;;;;;;-2.24;54.54;101085.03;5003352;28;20038;-65
2023/12/04 10:51:44;;;;;;;18.02;6.80;;;;;;;-1.92;53.90;101076.97;5010072;28;20038;-66
2023/12/04 10:54:12;;;;;;;19.73;5.30;;;;;;;-1.82;53.47;101074.56;4993210;28;20833;-65
2023/12/04 10:56:42;;;;;;;17.15;6.82;;;;;;;-1.70;53.36;101073.03;5007231;28;20114;-67
2023/12/04 10:59:15;;;;;;;18.35;7.15;;;;;;;-2.08;54.01;101068.19;5005363;28;20037;-66
2023/12/04 11:01:46;;;;;;;13.68;6.55;;;;;;;-1.86;53.33;101064.25;5009834;28;20093;-65
2023/12/04 11:04:18;;;;;;;15.65;6.45;;;;;;;-1.80;53.60;101061.75;4976321;28;20444;-67
2023/12/04 11:06:52;;;;;;;12.10;6.10;;;;;;;-1.77;53.26;101066.09;5003450;28;20029;-65
2023/12/04 11:09:26;;;;;;;18.60;7.75;;;;;;;-1.69;53.07;101051.66;5005437;28;20060;-65